首页
METAR-TAF:

METAR-TAF

机场 :

DuBois / Falls Creek, 宾夕法尼亚州, 美国

纬度: 41-11N, 经度: 078-54W, 海拔: 555米

当前天气观测

该预报发布于10分钟前的09:26 UTC
静风
温度 17°C
湿度 94%
气压 1017 hPa
能見度: 3.2公里
少量云层高于400英尺
轻雾

METAR: KDUJ 180926Z AUTO 00000KT 2SM BR FEW004 17/16 A3003 RMK AO2 T01720161

时间: 05:36 (09:36 UTC)

预报

该预报发布于9分钟前的09:27 UTC
预报有效从18日的 09点(UTC)到 19日的 06点(UTC)
风速节,风向
能見度: 4.8公里
多云层高于20000英尺
轻雾
短暂存在
从 18日的 09点(UTC)到 18日的 12点(UTC)
能見度: 1.6公里
层高于400英尺
轻雾
从 18日的 1300点(UTC)
风速3节,风向南转南东
能見度: 10公里
散云层高于2000英尺
从 18日的 1700点(UTC)
风速8节,风向
能見度: 10公里
多云层高于4000英尺, 积雨云.
附近有雷暴
从 18日的 2200点(UTC)
风速5节,风向
能見度: 10公里
散云层高于20000英尺

TAF: KDUJ 180927Z 1809/1906 00000KT 3SM BR BKN200 TEMPO 1809/1812 1SM BR VV004 FM181300 16003KT P6SM SCT020 FM181700 19008KT P6SM VCTS BKN040CB FM182200 19005KT P6SM SCT200

超过4000个机场的气象观测和天气预报(METAR&TAF报告)。

可查询的气象台以黄色和红色小点在地图上表示。

将鼠标移到小点上方,可查看气象台名称。

然后点击查看天气观测和预报。

如需切换地图:点击带黑十字的绿色按钮放大地图;点击带横线的绿色按钮缩小地图;或者点击绿色箭头查看邻近地区的地图。


METAR-TAF: